EW4521 Weather Reports


Display with metric or nautical units.
time (UTC)temp
F
wind
direction
speed
MPH
gust
MPH
rain 1hr
in
rain 24hr
in
rain mn
in
humidity
%
barometer
mb
20190319093202 55 357 0.0 3.0 0.00 0.00 0.00 77 1013.5
20190319091634 54 357 2.0 4.0 0.00 0.00 0.00 78 1013.6
20190319090130 54 324 1.0 4.0 0.00 0.00 0.00 82 1013.7
20190319084651 54 328 1.0 3.0 0.00 0.00 0.00 82 1013.7
20190319083132 54 8 0.0 4.0 0.00 0.00 0.00 82 1013.7
20190319081619 54 332 1.0 3.0 0.00 0.00 0.00 82 1013.9
20190319080231 54 328 1.0 3.0 0.00 0.00 0.00 81 1014.0
20190319074715 55 301 2.0 3.0 0.00 0.00 0.00 82 1014.2
20190319073102 55 295 2.0 3.0 0.00 0.00 0.00 80 1014.3
20190319071606 56 337 0.0 0.0 0.00 0.00 0.00 78 1014.4
20190319070135 56 337 0.0 0.0 0.00 0.00 0.00 77 1014.7
20190319064623 57 337 0.0 0.0 0.00 0.00 0.00 74 1014.7
20190319063135 57 337 0.0 0.0 0.00 0.00 0.00 74 1014.9
20190319061616 58 337 0.0 0.0 0.00 0.00 0.00 73 1014.7
20190319060110 58 337 0.0 0.0 0.00 0.00 0.00 71 1014.7
20190319054557 58 337 0.0 0.0 0.00 0.00 0.00 71 1014.7
20190319053128 58 337 0.0 0.0 0.00 0.00 0.00 72 1014.6
20190319051552 58 337 0.0 0.0 0.00 0.00 0.00 72 1014.6
20190319050101 58 337 0.0 3.0 0.00 0.00 0.00 72 1014.5
20190319044534 58 281 0.0 2.0 0.00 0.00 0.00 71 1014.4
20190319043041 59 224 0.0 0.0 0.00 0.00 0.00 70 1014.3
20190319041606 59 199 0.0 0.0 0.00 0.00 0.00 69 1014.4
20190319040058 59 199 0.0 0.0 0.00 0.00 0.00 68 1014.3
20190319034610 59 199 1.0 2.0 0.00 0.00 0.00 66 1014.3
20190319033134 59 199 0.0 0.0 0.00 0.00 0.00 67 1014.3
20190319031503 59 199 0.0 2.0 0.00 0.00 0.00 66 1014.2
20190319030005 59 199 0.0 1.0 0.00 0.00 0.00 71 1014.2
20190319024653 60 199 0.0 1.0 0.00 0.00 0.00 71 1014.2
20190319023145 60 199 1.0 3.0 0.00 0.00 0.00 70 1014.3
20190319020159 61 203 2.0 6.0 0.00 0.00 0.00 68 1014.1
20190319014651 62 209 3.0 7.0 0.00 0.00 0.00 67 1014.1
20190319010216 65 184 1.0 6.0 0.00 0.00 0.00 59 1013.9
20190319004816 66 207 4.0 7.0 0.00 0.00 0.00 58 1014.0
20190319003140 65 241 3.0 10.0 0.00 0.00 0.00 62 1013.9
20190319001733 65 186 5.0 11.0 0.00 0.00 0.00 63 1013.8
20190319000223 65 205 9.0 13.0 0.00 0.00 0.00 63 1013.9
20190318234717 65 234 8.0 14.0 0.00 0.00 0.00 63 1013.8
20190318233127 66 187 9.0 15.0 0.00 0.00 0.00 62 1014.0
20190318231706 66 211 6.0 14.0 0.00 0.00 0.00 53 1014.0
20190318230235 65 211 6.0 11.0 0.00 0.00 0.00 52 1014.1
20190318224618 66 211 8.0 16.0 0.00 0.00 0.00 51 1014.1
20190318223114 67 155 9.0 17.0 0.00 0.00 0.00 53 1014.2
20190318221730 68 161 7.0 15.0 0.00 0.00 0.00 50 1014.2
20190318220135 69 173 9.0 17.0 0.00 0.00 0.00 52 1014.2
20190318214621 71 195 9.0 16.0 0.00 0.00 0.00 47 1014.2
20190318213124 73 205 4.0 11.0 0.00 0.00 0.00 43 1014.1
20190318211628 72 178 2.0 10.0 0.00 0.00 0.00 45 1013.9
20190318210118 72 184 4.0 9.0 0.00 0.00 0.00 44 1014.2
20190318204543 71 222 4.0 10.0 0.00 0.00 0.00 46 1014.3
20190318203052 70 223 7.0 10.0 0.00 0.00 0.00 47 1014.4
20190318201555 69 219 5.0 12.0 0.00 0.00 0.00 50 1014.5
20190318200043 68 226 6.0 12.0 0.00 0.00 0.00 51 1014.7
20190318194552 68 156 6.0 11.0 0.00 0.00 0.00 53 1014.9
20190318193113 68 213 6.0 15.0 0.00 0.00 0.00 54 1015.0
20190318190026 67 225 9.0 16.0 0.00 0.00 0.00 54 1015.1
20190318184535 66 206 8.0 16.0 0.00 0.00 0.00 55 1015.1
20190318183022 67 218 10.0 19.0 0.00 0.00 0.00 52 1014.9
20190318181525 68 218 11.0 17.0 0.00 0.00 0.00 50 1015.0
20190318180019 68 205 10.0 16.0 0.00 0.00 0.00 46 1015.0
20190318174512 68 201 9.0 14.0 0.00 0.00 0.00 47 1014.9
20190318173001 69 203 7.0 11.0 0.00 0.00 0.00 44 1014.8
20190318171501 68 246 5.0 9.0 0.00 0.00 0.00 46 1014.8
20190318170141 68 179 5.0 9.0 0.00 0.00 0.00 48 1014.7
20190318164613 67 205 3.0 5.0 0.00 0.00 0.00 50 1014.7
20190318163133 67 207 3.0 6.0 0.00 0.00 0.00 51 1014.7
20190318161557 67 124 2.0 3.0 0.00 0.00 0.00 47 1014.6
20190318160050 66 53 2.0 4.0 0.00 0.00 0.00 49 1014.7
20190318154616 64 12 2.0 4.0 0.00 0.00 0.00 53 1014.7
20190318151541 59 20 1.0 4.0 0.00 0.00 0.00 62 1014.5
20190318150030 56 49 2.0 5.0 0.00 0.00 0.00 64 1014.6
20190318144518 53 45 1.0 4.0 0.00 0.00 0.00 70 1014.8
20190318143201 52 324 1.0 4.0 0.00 0.00 0.00 72 1014.6
20190318141802 51 36 0.0 5.0 0.00 0.00 0.00 72 1014.4
20190318140203 51 33 1.0 4.0 0.00 0.00 0.00 72 1014.3
20190318134644 51 23 1.0 5.0 0.00 0.00 0.00 72 1014.2
20190318133136 52 29 1.0 4.0 0.00 0.00 0.00 73 1014.2
20190318131727 52 318 1.0 3.0 0.00 0.00 0.00 73 1014.2
20190318130201 52 347 0.0 4.0 0.00 0.00 0.00 71 1014.1
20190318123104 54 8 1.0 4.0 0.00 0.00 0.00 71 1013.9
20190318121641 54 4 1.0 5.0 0.00 0.00 0.00 69 1013.8
20190318120124 54 354 2.0 3.0 0.00 0.00 0.00 66 1013.9
20190318114630 55 358 2.0 4.0 0.00 0.00 0.00 67 1014.0
20190318113102 56 4 2.0 5.0 0.00 0.00 0.00 64 1013.9
20190318111630 56 337 1.0 3.0 0.00 0.00 0.00 63 1013.7
20190318110200 55 330 0.0 1.0 0.00 0.00 0.00 63 1013.7
20190318104613 54 330 1.0 4.0 0.00 0.00 0.00 68 1013.7
20190318101627 54 4 2.0 5.0 0.00 0.00 0.00 69 1013.9
20190318100147 54 12 2.0 4.0 0.00 0.00 0.00 70 1014.0
20190318094616 54 347 2.0 4.0 0.00 0.00 0.00 70 1014.3